Terminal Aerodrome Forecast
Issued by NWS Sterling, VA

Current Version | Previous Version | Graphics & Text | Print | Product List | Glossary On
Versions: 1 2 3 4 5 6 7 8 9 10 11 12 13 14 15 16 17 18 19 20 21 22 23 24 25 26
000
FTUS41 KLWX 060541
TAFIAD
TAF
KIAD 060541Z 0606/0712 00000KT 6SM -SHRA OVC015
     FM061000 09004KT P6SM OVC015
     FM061200 11006KT P6SM OVC008
     FM061600 13008KT P6SM VCTS BKN050CB
     FM061900 13009KT P6SM -SHRA VCTS BKN050CB
     FM070100 14004KT P6SM BKN100
     FM070700 VRB03KT P6SM SCT080=

USA.gov is the U.S. government's official web portal to all federal, state and local government web resources and services.